createdAt,value
2023-01-15T00:02:09.836Z,95530.75
2023-01-15T00:04:36.856Z,95530.22
2023-01-15T00:07:04.507Z,95522.47
2023-01-15T00:09:31.380Z,95523.34
2023-01-15T00:11:58.249Z,95522.31
2023-01-15T00:14:25.122Z,95517.63
2023-01-15T00:16:52.610Z,95508.06
2023-01-15T00:19:19.642Z,95521.03
2023-01-15T00:21:46.418Z,95517.44
2023-01-15T00:24:31.696Z,95520.97
2023-01-15T00:27:16.862Z,95505.16
2023-01-15T00:29:46.776Z,95520.19
2023-01-15T00:32:13.629Z,95517.94
2023-01-15T00:34:40.366Z,95529.53
2023-01-15T00:37:07.169Z,95521.91
2023-01-15T00:39:35.506Z,95518.66
2023-01-15T00:42:02.759Z,95516.56
2023-01-15T00:44:33.596Z,95509.50
2023-01-15T00:47:00.646Z,95506.97
2023-01-15T00:49:27.419Z,95506.94
2023-01-15T00:51:54.297Z,95494.53
2023-01-15T00:54:21.549Z,95498.09
2023-01-15T00:56:48.389Z,95502.97
2023-01-15T00:59:15.668Z,95510.16
2023-01-15T01:01:43.331Z,95509.75
2023-01-15T01:04:10.189Z,95512.81
2023-01-15T01:06:37.087Z,95510.78
2023-01-15T01:09:04.059Z,95489.25
2023-01-15T01:11:34.352Z,95508.91
2023-01-15T01:14:02.747Z,95504.28
2023-01-15T01:16:38.782Z,95501.75
2023-01-15T01:19:11.915Z,95505.03
2023-01-15T01:21:39.952Z,95506.28
2023-01-15T01:24:08.233Z,95506.66
2023-01-15T01:26:35.496Z,95503.97
2023-01-15T01:29:03.600Z,95506.50
2023-01-15T01:31:30.635Z,95510.78
2023-01-15T01:33:59.425Z,95497.69
2023-01-15T01:36:32.902Z,95491.75
2023-01-15T01:39:00.145Z,95493.25
2023-01-15T01:41:28.008Z,95496.38
2023-01-15T01:44:05.406Z,95498.88
2023-01-15T01:46:35.343Z,95489.56
2023-01-15T01:49:04.803Z,95474.09
2023-01-15T01:51:37.737Z,95495.22
2023-01-15T01:54:05.087Z,95474.09
2023-01-15T01:56:35.940Z,95493.50
2023-01-15T01:59:04.624Z,95485.41
2023-01-15T02:01:31.612Z,95493.66
2023-01-15T02:03:58.516Z,95492.56
2023-01-15T02:06:27.103Z,95491.53
2023-01-15T02:08:53.918Z,95488.38
2023-01-15T02:11:23.592Z,95496.00
2023-01-15T02:13:56.477Z,95492.84
2023-01-15T02:16:32.629Z,95487.25
2023-01-15T02:19:07.409Z,95492.63
2023-01-15T02:21:40.156Z,95486.53
2023-01-15T02:24:28.876Z,95478.66
2023-01-15T02:27:18.014Z,95491.66
2023-01-15T02:30:05.331Z,95491.41
2023-01-15T02:32:41.790Z,95491.13
2023-01-15T02:35:17.081Z,95474.06
2023-01-15T02:37:49.089Z,95471.56
2023-01-15T02:40:21.199Z,95476.41
2023-01-15T02:42:50.163Z,95474.75
2023-01-15T02:45:26.740Z,95486.66
2023-01-15T02:47:56.612Z,95478.41
2023-01-15T02:50:30.209Z,95468.00
2023-01-15T02:53:05.613Z,95476.09
2023-01-15T02:55:44.169Z,95477.31
2023-01-15T02:58:16.465Z,95475.88
2023-01-15T03:00:49.435Z,95481.09
2023-01-15T03:03:36.648Z,95478.19
2023-01-15T03:06:24.507Z,95480.78
2023-01-15T03:08:52.580Z,95484.03
2023-01-15T03:11:20.845Z,95487.78
2023-01-15T03:14:08.210Z,95487.06
2023-01-15T03:16:42.758Z,95484.56
2023-01-15T03:19:27.336Z,95491.91
2023-01-15T03:22:02.821Z,95491.13
2023-01-15T03:25:01.390Z,95482.16
2023-01-15T03:27:32.037Z,95473.78
2023-01-15T03:30:04.446Z,95471.22
2023-01-15T03:32:31.453Z,95485.31
2023-01-15T03:35:00.298Z,95475.31
2023-01-15T03:37:28.550Z,95482.56
2023-01-15T03:39:58.217Z,95489.91
2023-01-15T03:43:10.624Z,95492.84
2023-01-15T03:45:39.453Z,95491.72
2023-01-15T03:48:19.465Z,95493.19
2023-01-15T03:51:22.874Z,95491.44
2023-01-15T03:54:02.234Z,95498.56
2023-01-15T03:56:28.989Z,95493.75
2023-01-15T03:59:00.618Z,95495.41
2023-01-15T04:01:42.873Z,95479.69
2023-01-15T04:04:14.271Z,95478.22
2023-01-15T04:06:43.479Z,95484.25
2023-01-15T04:09:13.018Z,95461.31
2023-01-15T04:11:39.992Z,95484.31
2023-01-15T04:14:07.754Z,95481.81
2023-01-15T04:16:50.875Z,95469.19
2023-01-15T04:19:17.721Z,95474.50
2023-01-15T04:21:55.130Z,95473.41
2023-01-15T04:24:22.015Z,95478.34
2023-01-15T04:26:48.816Z,95477.44
2023-01-15T04:29:15.710Z,95485.25
2023-01-15T04:31:42.394Z,95490.94
2023-01-15T04:34:09.227Z,95486.81
2023-01-15T04:36:35.972Z,95475.81
2023-01-15T04:39:04.984Z,95466.03
2023-01-15T04:41:50.523Z,95486.81
2023-01-15T04:44:17.447Z,95491.19
2023-01-15T04:46:46.331Z,95483.03
2023-01-15T04:49:17.919Z,95487.84
2023-01-15T04:51:46.112Z,95486.63
2023-01-15T04:54:15.243Z,95488.84
2023-01-15T04:56:45.099Z,95489.00
2023-01-15T04:59:14.868Z,95493.22
2023-01-15T05:01:51.325Z,95494.19
2023-01-15T05:04:25.288Z,95501.03
2023-01-15T05:06:53.374Z,95495.66
2023-01-15T05:09:20.189Z,95499.47
2023-01-15T05:11:47.044Z,95490.25
2023-01-15T05:14:13.735Z,95488.28
2023-01-15T05:16:40.630Z,95491.16
2023-01-15T05:19:08.091Z,95486.75
2023-01-15T05:21:39.871Z,95494.38
2023-01-15T05:24:08.879Z,95498.13
2023-01-15T05:26:36.207Z,95491.44
2023-01-15T05:29:03.510Z,95490.03
2023-01-15T05:31:33.707Z,95503.09
2023-01-15T05:34:00.541Z,95495.53
2023-01-15T05:36:30.616Z,95497.28
2023-01-15T05:39:01.489Z,95486.16
2023-01-15T05:41:48.256Z,95494.06
2023-01-15T05:44:17.805Z,95492.53
2023-01-15T05:46:45.023Z,95491.34
2023-01-15T05:49:14.983Z,95492.84
2023-01-15T05:51:42.390Z,95500.72
2023-01-15T05:54:13.636Z,95497.72
2023-01-15T05:56:40.848Z,95504.72
2023-01-15T05:59:08.859Z,95498.28
2023-01-15T06:01:36.032Z,95500.97
2023-01-15T06:04:05.134Z,95505.59
2023-01-15T06:06:33.797Z,95506.75
2023-01-15T06:09:00.599Z,95501.13
2023-01-15T06:11:27.891Z,95500.44
2023-01-15T06:13:54.589Z,95497.75
2023-01-15T06:16:21.656Z,95496.22
2023-01-15T06:18:48.716Z,95499.56
2023-01-15T06:21:16.133Z,95507.78
2023-01-15T06:23:43.560Z,95501.56
2023-01-15T06:26:18.067Z,95502.88
2023-01-15T06:28:46.186Z,95505.41
2023-01-15T06:31:16.567Z,95507.91
2023-01-15T06:33:43.930Z,95499.81
2023-01-15T06:36:21.587Z,95499.56
2023-01-15T06:38:48.922Z,95495.91
2023-01-15T06:41:36.965Z,95494.34
2023-01-15T06:44:23.059Z,95501.69
2023-01-15T06:47:09.892Z,95501.84
2023-01-15T06:49:37.610Z,95504.97
2023-01-15T06:52:04.969Z,95496.94
2023-01-15T06:54:32.459Z,95501.13
2023-01-15T06:56:59.355Z,95506.59
2023-01-15T06:59:26.122Z,95508.91
2023-01-15T07:01:53.048Z,95507.16
2023-01-15T07:04:19.939Z,95508.34
2023-01-15T07:06:46.899Z,95507.34
2023-01-15T07:09:13.663Z,95499.91
2023-01-15T07:11:49.616Z,95503.34
2023-01-15T07:14:23.736Z,95498.06
2023-01-15T07:16:51.665Z,95496.41
2023-01-15T07:19:19.258Z,95500.22
2023-01-15T07:21:46.667Z,95503.53
2023-01-15T07:24:14.322Z,95503.97
2023-01-15T07:26:41.929Z,95503.88
2023-01-15T07:29:09.191Z,95510.13
2023-01-15T07:31:35.970Z,95514.13
2023-01-15T07:34:02.812Z,95512.94
2023-01-15T07:36:29.601Z,95504.38
2023-01-15T07:38:56.416Z,95511.81
2023-01-15T07:41:41.904Z,95509.75
2023-01-15T07:44:30.793Z,95513.09
2023-01-15T07:47:16.772Z,95521.00
2023-01-15T07:49:48.241Z,95524.63
2023-01-15T07:52:17.691Z,95511.72
2023-01-15T07:54:46.120Z,95517.97
2023-01-15T07:57:15.177Z,95501.94
2023-01-15T07:59:42.267Z,95506.47
2023-01-15T08:02:09.487Z,95510.78
2023-01-15T08:04:36.923Z,95507.13
2023-01-15T08:07:04.605Z,95509.13
2023-01-15T08:09:31.683Z,95510.06
2023-01-15T08:12:21.165Z,95498.75
2023-01-15T08:15:06.597Z,95508.00
2023-01-15T08:17:34.993Z,95516.38
2023-01-15T08:20:05.978Z,95512.50
2023-01-15T08:22:33.451Z,95521.78
2023-01-15T08:25:00.236Z,95524.56
2023-01-15T08:27:27.499Z,95516.75
2023-01-15T08:29:54.121Z,95510.91
2023-01-15T08:32:20.871Z,95525.50
2023-01-15T08:34:47.661Z,95530.50
2023-01-15T08:37:14.455Z,95518.47
2023-01-15T08:39:41.373Z,95520.38
2023-01-15T08:42:08.599Z,95526.69
2023-01-15T08:44:35.461Z,95508.38
2023-01-15T08:47:02.172Z,95511.75
2023-01-15T08:49:29.182Z,95515.41
2023-01-15T08:51:55.853Z,95514.59
2023-01-15T08:54:24.523Z,95513.06
2023-01-15T08:56:51.414Z,95516.63
2023-01-15T08:59:18.953Z,95515.31
2023-01-15T09:01:45.896Z,95513.06
2023-01-15T09:04:18.313Z,95514.97
2023-01-15T09:06:46.915Z,95508.16
2023-01-15T09:09:14.538Z,95523.56
2023-01-15T09:11:44.317Z,95510.59
2023-01-15T09:14:56.824Z,95510.59
2023-01-15T09:17:02.009Z,95507.03
2023-01-15T09:19:28.944Z,95516.03
2023-01-15T09:21:55.646Z,95503.06
2023-01-15T09:24:22.673Z,95507.84
2023-01-15T09:26:53.133Z,95504.81
2023-01-15T09:29:20.114Z,95507.13
2023-01-15T09:31:47.056Z,95496.06
2023-01-15T09:34:15.035Z,95494.22
2023-01-15T09:36:41.815Z,95493.53
2023-01-15T09:39:08.714Z,95481.31
2023-01-15T09:42:10.768Z,95477.81
2023-01-15T09:45:02.426Z,95472.22
2023-01-15T09:47:39.402Z,95474.75
2023-01-15T09:50:39.434Z,95471.75
2023-01-15T09:53:31.947Z,95467.97
2023-01-15T09:56:02.406Z,95451.06
2023-01-15T09:58:36.436Z,95449.56
2023-01-15T10:01:04.177Z,95442.75
2023-01-15T10:03:43.012Z,95441.19
2023-01-15T10:06:19.928Z,95436.69
2023-01-15T10:08:48.894Z,95426.47
2023-01-15T10:11:15.546Z,95422.91
2023-01-15T10:13:49.929Z,95417.47
2023-01-15T10:16:24.376Z,95425.56
2023-01-15T10:18:51.569Z,95412.50
2023-01-15T10:21:41.024Z,95410.50
2023-01-15T10:24:08.354Z,95400.69
2023-01-15T10:26:51.549Z,95394.66
2023-01-15T10:29:54.195Z,95396.25
2023-01-15T10:32:56.929Z,95390.97
2023-01-15T10:35:39.521Z,95382.31
2023-01-15T10:38:33.603Z,95378.59
2023-01-15T10:41:12.845Z,95370.19
2023-01-15T10:44:04.336Z,95372.28
2023-01-15T10:46:38.317Z,95360.69
2023-01-15T10:49:14.128Z,95354.91
2023-01-15T10:51:53.929Z,95358.63
2023-01-15T10:54:29.139Z,95344.34
2023-01-15T10:57:05.284Z,95343.06
2023-01-15T10:59:57.293Z,95318.56
2023-01-15T11:02:49.269Z,95337.00
2023-01-15T11:05:21.183Z,95343.28
2023-01-15T11:08:15.273Z,95332.81
2023-01-15T11:10:41.377Z,95323.31
2023-01-15T11:13:37.004Z,95320.97
2023-01-15T11:16:22.949Z,95307.19
2023-01-15T11:19:08.137Z,95309.28
2023-01-15T11:21:42.008Z,95300.97
2023-01-15T11:24:16.323Z,95301.22
2023-01-15T11:26:48.725Z,95292.50
2023-01-15T11:29:32.858Z,95287.06
2023-01-15T11:32:00.195Z,95291.38
2023-01-15T11:34:26.916Z,95285.94
2023-01-15T11:37:05.296Z,95281.19
2023-01-15T11:39:32.171Z,95283.25
2023-01-15T11:42:19.760Z,95269.81
2023-01-15T11:45:17.014Z,95267.47
2023-01-15T11:48:14.527Z,95261.00
2023-01-15T11:50:54.424Z,95261.41
2023-01-15T11:53:25.596Z,95250.66
2023-01-15T11:56:06.364Z,95252.00
2023-01-15T11:58:40.572Z,95244.44
2023-01-15T12:01:07.594Z,95238.56
2023-01-15T12:03:36.566Z,95246.19
2023-01-15T12:06:10.283Z,95243.78
2023-01-15T12:08:43.103Z,95243.19
2023-01-15T12:11:27.195Z,95231.53
2023-01-15T12:14:09.991Z,95224.97
2023-01-15T12:16:48.645Z,95226.00
2023-01-15T12:19:40.586Z,95221.88
2023-01-15T12:22:27.142Z,95210.00
2023-01-15T12:25:31.732Z,95195.38
2023-01-15T12:28:38.444Z,95206.50
2023-01-15T12:31:11.546Z,95204.09
2023-01-15T12:33:57.586Z,95201.50
2023-01-15T12:36:32.998Z,95193.47
2023-01-15T12:39:14.982Z,95185.59
2023-01-15T12:42:04.131Z,95195.97
2023-01-15T12:45:04.210Z,95193.97
2023-01-15T12:47:40.805Z,95196.00
2023-01-15T12:50:39.580Z,95193.63
2023-01-15T12:53:27.385Z,95188.69
2023-01-15T12:56:07.275Z,95175.34
2023-01-15T12:59:38.674Z,95172.09
2023-01-15T13:02:42.764Z,95166.28
2023-01-15T13:05:31.660Z,95161.47
2023-01-15T13:08:06.681Z,95170.91
2023-01-15T13:10:36.678Z,95161.06
2023-01-15T13:13:18.109Z,95161.28
2023-01-15T13:15:53.868Z,95162.25
2023-01-15T13:18:31.029Z,95153.16
2023-01-15T13:21:02.436Z,95154.31
2023-01-15T13:23:35.253Z,95155.13
2023-01-15T13:26:11.082Z,95145.50
2023-01-15T13:28:53.114Z,95142.06
2023-01-15T13:31:34.951Z,95135.28
2023-01-15T13:34:11.087Z,95137.34
2023-01-15T13:36:46.082Z,95142.31
2023-01-15T13:39:22.159Z,95135.38
2023-01-15T13:42:24.215Z,95130.25
2023-01-15T13:44:53.958Z,95142.34
2023-01-15T13:47:25.533Z,95142.28
2023-01-15T13:49:59.794Z,95143.63
2023-01-15T13:52:31.177Z,95139.16
2023-01-15T13:55:07.522Z,95137.47
2023-01-15T13:57:41.165Z,95147.44
2023-01-15T14:00:30.017Z,95154.09
2023-01-15T14:02:59.554Z,95139.16
2023-01-15T14:05:30.810Z,95143.59
2023-01-15T14:07:59.276Z,95120.81
2023-01-15T14:10:35.967Z,95120.41
2023-01-15T14:13:21.516Z,95135.47
2023-01-15T14:16:09.804Z,95139.78
2023-01-15T14:19:08.193Z,95135.06
2023-01-15T14:21:53.479Z,95135.41
2023-01-15T14:24:39.220Z,95139.66
2023-01-15T14:27:16.052Z,95140.53
2023-01-15T14:30:10.636Z,95138.13
2023-01-15T14:32:55.206Z,95119.28
2023-01-15T14:35:24.386Z,95143.56
2023-01-15T14:37:58.858Z,95141.84
2023-01-15T14:40:30.861Z,95146.41
2023-01-15T14:43:10.307Z,95120.13
2023-01-15T14:45:41.229Z,95136.50
2023-01-15T14:48:29.024Z,95145.13
2023-01-15T14:51:25.432Z,95142.63
2023-01-15T14:53:56.821Z,95152.31
2023-01-15T14:56:38.348Z,95146.63
2023-01-15T14:59:21.098Z,95144.97
2023-01-15T15:01:48.117Z,95144.75
2023-01-15T15:04:35.940Z,95147.78
2023-01-15T15:07:17.153Z,95145.19
2023-01-15T15:09:48.432Z,95144.16
2023-01-15T15:12:24.330Z,95151.03
2023-01-15T15:15:25.137Z,95144.63
2023-01-15T15:18:12.717Z,95143.56
2023-01-15T15:20:47.458Z,95143.69
2023-01-15T15:23:39.352Z,95145.84
2023-01-15T15:26:22.274Z,95150.81
2023-01-15T15:29:05.076Z,95151.13
2023-01-15T15:31:37.206Z,95147.47
2023-01-15T15:34:07.152Z,95145.38
2023-01-15T15:36:39.565Z,95148.06
2023-01-15T15:39:34.632Z,95161.75
2023-01-15T15:42:21.179Z,95153.81
2023-01-15T15:45:13.316Z,95156.75
2023-01-15T15:48:00.703Z,95154.84
2023-01-15T15:50:33.834Z,95153.56
2023-01-15T15:53:06.561Z,95161.19
2023-01-15T15:55:42.657Z,95153.84
2023-01-15T15:58:26.414Z,95151.16
2023-01-15T16:00:54.193Z,95158.28
2023-01-15T16:03:26.911Z,95156.94
2023-01-15T16:06:02.570Z,95156.44
2023-01-15T16:08:31.854Z,95134.84
2023-01-15T16:11:02.125Z,95146.41
2023-01-15T16:13:35.157Z,95156.41
2023-01-15T16:16:04.193Z,95155.31
2023-01-15T16:18:44.225Z,95166.34
2023-01-15T16:21:20.169Z,95160.28
2023-01-15T16:24:07.137Z,95162.56
2023-01-15T16:26:37.016Z,95165.56
2023-01-15T16:29:06.447Z,95164.75
2023-01-15T16:31:34.962Z,95161.84
2023-01-15T16:34:02.598Z,95158.09
2023-01-15T16:36:39.421Z,95172.97
2023-01-15T16:39:07.311Z,95170.38
2023-01-15T16:41:42.352Z,95169.72
2023-01-15T16:44:33.852Z,95164.19
2023-01-15T16:47:01.798Z,95165.66
2023-01-15T16:49:33.552Z,95168.38
2023-01-15T16:52:04.196Z,95167.28
2023-01-15T16:54:30.848Z,95162.84
2023-01-15T16:57:25.004Z,95173.88
2023-01-15T16:59:56.393Z,95176.56
2023-01-15T17:02:24.665Z,95169.97
2023-01-15T17:04:51.908Z,95169.59
2023-01-15T17:07:28.082Z,95177.53
2023-01-15T17:09:58.005Z,95169.69
2023-01-15T17:12:38.212Z,95174.13
2023-01-15T17:15:14.250Z,95169.44
2023-01-15T17:17:49.768Z,95166.09
2023-01-15T17:20:19.050Z,95172.66
2023-01-15T17:22:48.197Z,95174.94
2023-01-15T17:25:34.972Z,95175.81
2023-01-15T17:28:03.572Z,95168.75
2023-01-15T17:30:31.379Z,95163.16
2023-01-15T17:32:59.969Z,95169.28
2023-01-15T17:35:35.415Z,95174.38
2023-01-15T17:38:02.672Z,95176.84
2023-01-15T17:40:29.491Z,95169.47
2023-01-15T17:42:56.710Z,95174.28
2023-01-15T17:45:26.961Z,95165.06
2023-01-15T17:47:53.943Z,95183.91
2023-01-15T17:50:21.296Z,95174.19
2023-01-15T17:52:48.817Z,95164.03
2023-01-15T17:55:37.215Z,95162.63
2023-01-15T17:58:23.584Z,95170.34
2023-01-15T18:01:11.416Z,95164.38
2023-01-15T18:04:03.720Z,95171.13
2023-01-15T18:06:31.458Z,95161.28
2023-01-15T18:09:00.736Z,95162.72
2023-01-15T18:11:27.816Z,95153.25
2023-01-15T18:13:56.037Z,95157.72
2023-01-15T18:16:24.130Z,95154.53
2023-01-15T18:18:53.469Z,95155.06
2023-01-15T18:21:20.793Z,95152.47
2023-01-15T18:23:47.663Z,95152.41
2023-01-15T18:26:15.736Z,95165.59
2023-01-15T18:28:42.578Z,95154.03
2023-01-15T18:31:11.463Z,95160.19
2023-01-15T18:33:38.472Z,95162.88
2023-01-15T18:36:10.392Z,95160.66
2023-01-15T18:38:43.751Z,95163.75
2023-01-15T18:41:37.960Z,95167.75
2023-01-15T18:44:33.326Z,95158.31
2023-01-15T18:47:02.773Z,95163.84
2023-01-15T18:49:31.153Z,95156.47
2023-01-15T18:52:16.931Z,95148.13
2023-01-15T18:54:43.769Z,95146.50
2023-01-15T18:57:10.785Z,95150.72
2023-01-15T18:59:37.727Z,95146.25
2023-01-15T19:02:05.454Z,95151.50
2023-01-15T19:04:32.197Z,95148.69
2023-01-15T19:06:59.215Z,95135.78
2023-01-15T19:09:27.023Z,95142.22
2023-01-15T19:11:54.023Z,95146.47
2023-01-15T19:14:40.153Z,95153.25
2023-01-15T19:17:30.973Z,95131.84
2023-01-15T19:19:57.987Z,95153.34
2023-01-15T19:22:43.182Z,95147.72
2023-01-15T19:25:10.496Z,95141.03
2023-01-15T19:27:37.545Z,95138.56
2023-01-15T19:30:06.914Z,95143.88
2023-01-15T19:32:34.040Z,95141.69
2023-01-15T19:35:00.976Z,95144.44
2023-01-15T19:37:28.764Z,95146.56
2023-01-15T19:39:55.648Z,95146.06
2023-01-15T19:42:40.942Z,95146.84
2023-01-15T19:45:26.862Z,95148.66
2023-01-15T19:48:12.288Z,95153.94
2023-01-15T19:50:41.987Z,95146.09
2023-01-15T19:53:10.278Z,95147.06
2023-01-15T19:55:40.381Z,95145.22
2023-01-15T19:58:10.160Z,95144.84
2023-01-15T20:00:38.888Z,95142.72
2023-01-15T20:03:09.869Z,95140.09
2023-01-15T20:05:37.087Z,95119.06
2023-01-15T20:08:04.257Z,95143.03
2023-01-15T20:10:34.712Z,95139.19
2023-01-15T20:13:20.331Z,95144.69
2023-01-15T20:15:47.368Z,95146.69
2023-01-15T20:18:15.145Z,95147.78
2023-01-15T20:20:41.932Z,95158.56
2023-01-15T20:23:08.819Z,95151.94
2023-01-15T20:25:36.613Z,95147.09
2023-01-15T20:28:03.513Z,95139.69
2023-01-15T20:30:30.288Z,95148.31
2023-01-15T20:33:00.030Z,95134.03
2023-01-15T20:35:31.497Z,95134.22
2023-01-15T20:37:59.069Z,95138.16
2023-01-15T20:40:27.185Z,95138.03
2023-01-15T20:43:13.249Z,95134.31
2023-01-15T20:45:40.912Z,95131.44
2023-01-15T20:48:11.766Z,95126.25
2023-01-15T20:50:42.392Z,95132.81
2023-01-15T20:53:10.921Z,95133.81
2023-01-15T20:55:55.842Z,95132.78
2023-01-15T20:58:24.990Z,95139.75
2023-01-15T21:00:53.084Z,95138.03
2023-01-15T21:03:20.787Z,95132.72
2023-01-15T21:05:47.807Z,95143.47
2023-01-15T21:08:14.830Z,95143.63
2023-01-15T21:10:41.656Z,95141.03
2023-01-15T21:13:08.795Z,95142.63
2023-01-15T21:15:35.678Z,95136.34
2023-01-15T21:18:02.481Z,95128.91
2023-01-15T21:20:30.392Z,95124.06
2023-01-15T21:22:58.128Z,95119.50
2023-01-15T21:25:25.647Z,95116.03
2023-01-15T21:27:52.587Z,95115.38
2023-01-15T21:30:20.885Z,95109.31
2023-01-15T21:32:48.722Z,95109.03
2023-01-15T21:35:15.810Z,95111.44
2023-01-15T21:37:42.558Z,95113.97
2023-01-15T21:40:10.417Z,95126.19
2023-01-15T21:42:55.454Z,95119.09
2023-01-15T21:45:22.363Z,95121.13
2023-01-15T21:47:49.152Z,95115.91
2023-01-15T21:50:17.969Z,95114.34
2023-01-15T21:52:44.879Z,95103.19
2023-01-15T21:55:13.276Z,95104.97
2023-01-15T21:57:40.491Z,95103.28
2023-01-15T22:00:08.533Z,95108.16
2023-01-15T22:02:35.914Z,95104.69
2023-01-15T22:05:03.969Z,95106.81
2023-01-15T22:07:31.081Z,95103.28
2023-01-15T22:09:57.899Z,95104.19
2023-01-15T22:12:24.796Z,95093.34
2023-01-15T22:14:53.677Z,95091.19
2023-01-15T22:17:20.452Z,95089.59
2023-01-15T22:19:47.269Z,95091.91
2023-01-15T22:22:13.992Z,95092.13
2023-01-15T22:24:41.338Z,95085.25
2023-01-15T22:27:13.470Z,95083.47
2023-01-15T22:29:41.684Z,95088.84
2023-01-15T22:32:10.995Z,95098.06
2023-01-15T22:34:37.789Z,95089.13
2023-01-15T22:37:04.729Z,95083.78
2023-01-15T22:39:31.627Z,95084.56
2023-01-15T22:42:17.339Z,95082.75
2023-01-15T22:44:45.157Z,95074.38
2023-01-15T22:47:12.683Z,95077.31
2023-01-15T22:49:39.485Z,95073.63
2023-01-15T22:52:06.232Z,95070.31
2023-01-15T22:54:33.231Z,95068.88
2023-01-15T22:57:00.139Z,95068.91
2023-01-15T22:59:27.058Z,95070.25
2023-01-15T23:01:53.890Z,95072.44
2023-01-15T23:04:23.646Z,95066.91
2023-01-15T23:06:51.824Z,95056.22
2023-01-15T23:09:20.050Z,95047.81
2023-01-15T23:11:46.845Z,95062.69
2023-01-15T23:14:17.132Z,95048.91
2023-01-15T23:16:43.907Z,95051.13
2023-01-15T23:19:12.214Z,95047.50
2023-01-15T23:21:40.662Z,95053.19
2023-01-15T23:24:08.078Z,95050.84
2023-01-15T23:26:35.245Z,95056.59
2023-01-15T23:29:02.159Z,95048.72
2023-01-15T23:31:29.398Z,95047.25
2023-01-15T23:33:56.404Z,95036.25
2023-01-15T23:36:23.616Z,95020.88
2023-01-15T23:38:50.500Z,95036.25
2023-01-15T23:41:40.448Z,95031.25
2023-01-15T23:44:32.524Z,95041.16
2023-01-15T23:46:59.505Z,95023.09
2023-01-15T23:49:26.334Z,95043.75
2023-01-15T23:51:53.699Z,95043.00
2023-01-15T23:54:20.560Z,95045.63
2023-01-15T23:56:47.458Z,95044.56
2023-01-15T23:59:14.407Z,95046.69
